sensor_id;sensor_type;location;lat;lon;timestamp;pressure;altitude;pressure_sealevel;temperature;humidity
71778;BME280;59609;52.430;4.668;2023-01-08T00:01:40;100176.22;;;10.41;90.09
71778;BME280;59609;52.430;4.668;2023-01-08T00:04:05;100160.97;;;10.30;89.85
71778;BME280;59609;52.430;4.668;2023-01-08T00:06:31;100175.41;;;10.32;90.74
71778;BME280;59609;52.430;4.668;2023-01-08T00:08:56;100169.59;;;10.27;90.96
71778;BME280;59609;52.430;4.668;2023-01-08T00:11:22;100169.78;;;10.25;91.29
71778;BME280;59609;52.430;4.668;2023-01-08T00:13:47;100161.72;;;10.24;90.70
71778;BME280;59609;52.430;4.668;2023-01-08T00:16:14;100162.38;;;10.26;91.55
71778;BME280;59609;52.430;4.668;2023-01-08T00:18:41;100164.09;;;10.27;91.52
71778;BME280;59609;52.430;4.668;2023-01-08T00:21:06;100163.78;;;10.22;92.06
71778;BME280;59609;52.430;4.668;2023-01-08T00:23:33;100174.28;;;10.18;92.00
71778;BME280;59609;52.430;4.668;2023-01-08T00:26:07;100160.03;;;10.15;92.52
71778;BME280;59609;52.430;4.668;2023-01-08T00:28:33;100166.22;;;10.17;92.53
71778;BME280;59609;52.430;4.668;2023-01-08T00:30:59;100172.75;;;10.16;92.37
71778;BME280;59609;52.430;4.668;2023-01-08T00:33:25;100158.13;;;10.15;92.33
71778;BME280;59609;52.430;4.668;2023-01-08T00:35:51;100148.47;;;10.19;92.52
71778;BME280;59609;52.430;4.668;2023-01-08T00:38:16;100162.25;;;10.11;92.42
71778;BME280;59609;52.430;4.668;2023-01-08T00:40:41;100162.06;;;10.13;92.43
71778;BME280;59609;52.430;4.668;2023-01-08T00:43:07;100155.41;;;10.07;93.35
71778;BME280;59609;52.430;4.668;2023-01-08T00:45:33;100145.81;;;10.03;93.08
71778;BME280;59609;52.430;4.668;2023-01-08T00:47:58;100142.34;;;10.01;93.41
71778;BME280;59609;52.430;4.668;2023-01-08T00:50:24;100146.47;;;10.05;93.97
71778;BME280;59609;52.430;4.668;2023-01-08T00:52:50;100149.06;;;10.07;93.28
71778;BME280;59609;52.430;4.668;2023-01-08T00:55:16;100139.72;;;10.08;93.71
71778;BME280;59609;52.430;4.668;2023-01-08T00:57:42;100135.69;;;9.96;94.39
71778;BME280;59609;52.430;4.668;2023-01-08T01:00:11;100132.94;;;9.96;93.86
71778;BME280;59609;52.430;4.668;2023-01-08T01:02:38;100124.19;;;9.92;94.24
71778;BME280;59609;52.430;4.668;2023-01-08T01:05:04;100115.06;;;9.92;94.63
71778;BME280;59609;52.430;4.668;2023-01-08T01:07:30;100112.53;;;9.82;94.69
71778;BME280;59609;52.430;4.668;2023-01-08T01:09:55;100119.28;;;9.79;94.87
71778;BME280;59609;52.430;4.668;2023-01-08T01:12:21;100120.94;;;9.89;95.05
71778;BME280;59609;52.430;4.668;2023-01-08T01:14:46;100119.94;;;9.81;94.53
71778;BME280;59609;52.430;4.668;2023-01-08T01:17:12;100118.78;;;9.68;95.68
71778;BME280;59609;52.430;4.668;2023-01-08T01:19:39;100132.09;;;9.56;96.88
71778;BME280;59609;52.430;4.668;2023-01-08T01:22:05;100127.69;;;9.39;98.50
71778;BME280;59609;52.430;4.668;2023-01-08T01:24:31;100118.94;;;9.27;99.48
71778;BME280;59609;52.430;4.668;2023-01-08T01:26:56;100115.88;;;9.30;99.89
71778;BME280;59609;52.430;4.668;2023-01-08T01:29:23;100120.00;;;9.26;100.00
71778;BME280;59609;52.430;4.668;2023-01-08T01:31:48;100118.78;;;9.21;100.00
71778;BME280;59609;52.430;4.668;2023-01-08T01:34:14;100117.09;;;9.20;100.00
71778;BME280;59609;52.430;4.668;2023-01-08T01:36:39;100116.25;;;9.19;100.00
71778;BME280;59609;52.430;4.668;2023-01-08T01:39:04;100112.13;;;9.23;100.00
71778;BME280;59609;52.430;4.668;2023-01-08T01:41:31;100107.63;;;9.22;100.00
71778;BME280;59609;52.430;4.668;2023-01-08T01:43:59;100115.38;;;9.11;100.00
71778;BME280;59609;52.430;4.668;2023-01-08T01:46:37;100108.50;;;9.15;100.00
71778;BME280;59609;52.430;4.668;2023-01-08T01:49:09;100111.63;;;9.12;100.00
71778;BME280;59609;52.430;4.668;2023-01-08T01:51:37;100112.63;;;9.11;100.00
71778;BME280;59609;52.430;4.668;2023-01-08T01:54:08;100110.94;;;9.02;100.00
71778;BME280;59609;52.430;4.668;2023-01-08T01:56:36;100109.94;;;9.03;100.00
71778;BME280;59609;52.430;4.668;2023-01-08T01:59:03;100117.81;;;9.06;100.00
71778;BME280;59609;52.430;4.668;2023-01-08T02:01:29;100119.00;;;9.11;100.00
71778;BME280;59609;52.430;4.668;2023-01-08T02:03:55;100117.97;;;9.12;100.00
71778;BME280;59609;52.430;4.668;2023-01-08T02:06:36;100116.78;;;9.07;100.00
71778;BME280;59609;52.430;4.668;2023-01-08T02:14:31;100107.00;;;9.04;100.00
71778;BME280;59609;52.430;4.668;2023-01-08T02:17:08;100107.53;;;9.00;100.00
71778;BME280;59609;52.430;4.668;2023-01-08T02:19:55;100099.66;;;8.97;100.00
71778;BME280;59609;52.430;4.668;2023-01-08T02:27:53;100099.59;;;9.05;100.00
71778;BME280;59609;52.430;4.668;2023-01-08T02:30:20;100102.72;;;9.02;100.00
71778;BME280;59609;52.430;4.668;2023-01-08T02:32:46;100105.13;;;8.97;100.00
71778;BME280;59609;52.430;4.668;2023-01-08T02:35:12;100103.72;;;9.01;100.00
71778;BME280;59609;52.430;4.668;2023-01-08T02:37:37;100102.72;;;9.02;100.00
71778;BME280;59609;52.430;4.668;2023-01-08T02:40:17;100099.81;;;9.03;100.00
71778;BME280;59609;52.430;4.668;2023-01-08T02:42:50;100100.31;;;8.99;100.00
71778;BME280;59609;52.430;4.668;2023-01-08T02:48:07;100108.19;;;9.02;100.00
71778;BME280;59609;52.430;4.668;2023-01-08T02:50:38;100089.84;;;8.94;100.00
71778;BME280;59609;52.430;4.668;2023-01-08T02:53:14;100089.16;;;9.00;100.00
71778;BME280;59609;52.430;4.668;2023-01-08T02:55:49;100091.56;;;8.95;100.00
71778;BME280;59609;52.430;4.668;2023-01-08T02:58:16;100094.50;;;8.94;100.00
71778;BME280;59609;52.430;4.668;2023-01-08T03:00:44;100093.63;;;8.93;100.00
71778;BME280;59609;52.430;4.668;2023-01-08T03:03:25;100094.81;;;8.99;100.00
71778;BME280;59609;52.430;4.668;2023-01-08T03:05:54;100099.13;;;8.93;100.00
71778;BME280;59609;52.430;4.668;2023-01-08T03:08:21;100092.94;;;8.91;100.00
71778;BME280;59609;52.430;4.668;2023-01-08T03:10:54;100102.75;;;8.94;100.00
71778;BME280;59609;52.430;4.668;2023-01-08T03:13:33;100108.25;;;8.94;100.00
71778;BME280;59609;52.430;4.668;2023-01-08T03:16:05;100101.88;;;8.85;100.00
71778;BME280;59609;52.430;4.668;2023-01-08T03:18:38;100107.06;;;8.80;100.00
71778;BME280;59609;52.430;4.668;2023-01-08T03:21:05;100104.47;;;8.87;100.00
71778;BME280;59609;52.430;4.668;2023-01-08T03:23:33;100101.03;;;8.93;100.00
71778;BME280;59609;52.430;4.668;2023-01-08T03:26:00;100099.66;;;8.89;100.00
71778;BME280;59609;52.430;4.668;2023-01-08T03:28:32;100100.31;;;8.91;100.00
71778;BME280;59609;52.430;4.668;2023-01-08T03:30:59;100099.13;;;8.93;100.00
71778;BME280;59609;52.430;4.668;2023-01-08T03:33:28;100089.00;;;8.86;100.00
71778;BME280;59609;52.430;4.668;2023-01-08T03:35:55;100088.00;;;8.78;100.00
71778;BME280;59609;52.430;4.668;2023-01-08T03:38:25;100091.25;;;8.82;100.00
71778;BME280;59609;52.430;4.668;2023-01-08T03:40:55;100086.97;;;8.79;100.00
71778;BME280;59609;52.430;4.668;2023-01-08T03:43:22;100086.78;;;8.81;100.00
71778;BME280;59609;52.430;4.668;2023-01-08T03:45:51;100090.75;;;8.78;100.00
71778;BME280;59609;52.430;4.668;2023-01-08T03:48:19;100084.56;;;8.76;100.00
71778;BME280;59609;52.430;4.668;2023-01-08T03:50:45;100085.09;;;8.72;100.00
71778;BME280;59609;52.430;4.668;2023-01-08T03:53:11;100069.28;;;8.74;100.00
71778;BME280;59609;52.430;4.668;2023-01-08T03:55:37;100074.63;;;8.75;100.00
71778;BME280;59609;52.430;4.668;2023-01-08T03:58:02;100070.28;;;8.81;100.00
71778;BME280;59609;52.430;4.668;2023-01-08T04:00:27;100070.84;;;8.76;100.00
71778;BME280;59609;52.430;4.668;2023-01-08T04:02:53;100073.59;;;8.76;100.00
71778;BME280;59609;52.430;4.668;2023-01-08T04:05:18;100070.50;;;8.79;100.00
71778;BME280;59609;52.430;4.668;2023-01-08T04:07:43;100071.34;;;8.80;100.00
71778;BME280;59609;52.430;4.668;2023-01-08T04:10:09;100067.41;;;8.74;100.00
71778;BME280;59609;52.430;4.668;2023-01-08T04:12:34;100060.56;;;8.62;100.00
71778;BME280;59609;52.430;4.668;2023-01-08T04:14:59;100067.06;;;8.61;100.00
71778;BME280;59609;52.430;4.668;2023-01-08T04:17:25;100069.81;;;8.61;100.00
71778;BME280;59609;52.430;4.668;2023-01-08T04:19:50;100067.09;;;8.53;100.00
71778;BME280;59609;52.430;4.668;2023-01-08T04:22:15;100082.34;;;8.56;100.00
71778;BME280;59609;52.430;4.668;2023-01-08T04:24:41;100072.91;;;8.58;100.00
71778;BME280;59609;52.430;4.668;2023-01-08T04:27:06;100064.19;;;8.47;100.00
71778;BME280;59609;52.430;4.668;2023-01-08T04:29:31;100062.63;;;8.44;100.00
71778;BME280;59609;52.430;4.668;2023-01-08T04:31:57;100071.03;;;8.51;100.00
71778;BME280;59609;52.430;4.668;2023-01-08T04:34:22;100056.81;;;8.39;100.00
71778;BME280;59609;52.430;4.668;2023-01-08T04:36:47;100066.22;;;8.45;100.00
71778;BME280;59609;52.430;4.668;2023-01-08T04:39:13;100061.78;;;8.44;100.00
71778;BME280;59609;52.430;4.668;2023-01-08T04:41:38;100070.34;;;8.49;100.00
71778;BME280;59609;52.430;4.668;2023-01-08T04:44:04;100069.69;;;8.47;100.00
71778;BME280;59609;52.430;4.668;2023-01-08T04:46:29;100068.78;;;8.54;100.00
71778;BME280;59609;52.430;4.668;2023-01-08T04:48:54;100071.72;;;8.45;100.00
71778;BME280;59609;52.430;4.668;2023-01-08T04:51:20;100066.91;;;8.39;100.00
71778;BME280;59609;52.430;4.668;2023-01-08T04:53:46;100061.09;;;8.34;100.00
71778;BME280;59609;52.430;4.668;2023-01-08T04:56:12;100061.94;;;8.26;100.00
71778;BME280;59609;52.430;4.668;2023-01-08T04:58:38;100061.22;;;8.24;100.00
71778;BME280;59609;52.430;4.668;2023-01-08T05:01:18;100053.53;;;8.19;100.00
71778;BME280;59609;52.430;4.668;2023-01-08T05:03:44;100060.88;;;8.19;100.00
71778;BME280;59609;52.430;4.668;2023-01-08T05:06:09;100058.00;;;8.20;100.00
71778;BME280;59609;52.430;4.668;2023-01-08T05:08:35;100063.47;;;8.20;100.00
71778;BME280;59609;52.430;4.668;2023-01-08T05:11:01;100065.38;;;8.28;100.00
71778;BME280;59609;52.430;4.668;2023-01-08T05:13:27;100063.84;;;8.34;100.00
71778;BME280;59609;52.430;4.668;2023-01-08T05:15:53;100054.41;;;8.28;100.00
71778;BME280;59609;52.430;4.668;2023-01-08T05:18:18;100055.09;;;8.30;100.00
71778;BME280;59609;52.430;4.668;2023-01-08T05:20:44;100065.38;;;8.28;100.00
71778;BME280;59609;52.430;4.668;2023-01-08T05:23:09;100058.81;;;8.21;100.00
71778;BME280;59609;52.430;4.668;2023-01-08T05:25:34;100059.34;;;8.24;100.00
71778;BME280;59609;52.430;4.668;2023-01-08T05:28:00;100044.44;;;8.19;100.00
71778;BME280;59609;52.430;4.668;2023-01-08T05:30:25;100055.91;;;8.22;100.00
71778;BME280;59609;52.430;4.668;2023-01-08T05:32:51;100047.16;;;8.19;100.00
71778;BME280;59609;52.430;4.668;2023-01-08T05:35:17;100055.72;;;8.24;100.00
71778;BME280;59609;52.430;4.668;2023-01-08T05:37:43;100042.19;;;8.22;100.00
71778;BME280;59609;52.430;4.668;2023-01-08T05:40:09;100055.97;;;8.31;100.00
71778;BME280;59609;52.430;4.668;2023-01-08T05:42:35;100051.81;;;8.35;100.00
71778;BME280;59609;52.430;4.668;2023-01-08T05:45:02;100056.97;;;8.38;100.00
71778;BME280;59609;52.430;4.668;2023-01-08T05:47:29;100050.09;;;8.42;100.00
71778;BME280;59609;52.430;4.668;2023-01-08T05:49:55;100050.28;;;8.48;100.00
71778;BME280;59609;52.430;4.668;2023-01-08T05:52:20;100048.59;;;8.47;100.00
71778;BME280;59609;52.430;4.668;2023-01-08T05:54:46;100058.00;;;8.53;100.00
71778;BME280;59609;52.430;4.668;2023-01-08T05:57:11;100050.78;;;8.60;99.91
71778;BME280;59609;52.430;4.668;2023-01-08T05:59:36;100052.16;;;8.64;99.96
71778;BME280;59609;52.430;4.668;2023-01-08T06:02:02;100056.47;;;8.50;100.00
71778;BME280;59609;52.430;4.668;2023-01-08T06:04:27;100059.03;;;8.52;100.00
71778;BME280;59609;52.430;4.668;2023-01-08T06:06:52;100055.63;;;8.34;100.00
71778;BME280;59609;52.430;4.668;2023-01-08T06:09:18;100051.81;;;8.35;100.00
71778;BME280;59609;52.430;4.668;2023-01-08T06:11:44;100055.25;;;8.20;100.00
71778;BME280;59609;52.430;4.668;2023-01-08T06:14:09;100050.09;;;8.25;100.00
71778;BME280;59609;52.430;4.668;2023-01-08T06:16:34;100050.59;;;8.21;100.00
71778;BME280;59609;52.430;4.668;2023-01-08T06:19:00;100049.41;;;8.23;100.00
71778;BME280;59609;52.430;4.668;2023-01-08T06:21:25;100047.84;;;8.21;100.00
71778;BME280;59609;52.430;4.668;2023-01-08T06:23:50;100047.84;;;8.21;100.00
71778;BME280;59609;52.430;4.668;2023-01-08T06:26:16;100052.69;;;8.27;100.00
71778;BME280;59609;52.430;4.668;2023-01-08T06:28:41;100049.63;;;8.30;100.00
71778;BME280;59609;52.430;4.668;2023-01-08T06:31:07;100039.50;;;8.31;100.00
71778;BME280;59609;52.430;4.668;2023-01-08T06:33:32;100048.91;;;8.28;100.00
71778;BME280;59609;52.430;4.668;2023-01-08T06:36:01;100048.38;;;8.24;100.00
71778;BME280;59609;52.430;4.668;2023-01-08T06:38:32;100030.00;;;8.25;100.00
71778;BME280;59609;52.430;4.668;2023-01-08T06:41:01;100037.03;;;8.27;100.00
71778;BME280;59609;52.430;4.668;2023-01-08T06:43:26;100033.63;;;8.25;100.00
71778;BME280;59609;52.430;4.668;2023-01-08T06:45:55;100025.78;;;8.31;99.79
71778;BME280;59609;52.430;4.668;2023-01-08T06:48:23;100033.47;;;8.27;99.90
71778;BME280;59609;52.430;4.668;2023-01-08T06:50:49;100032.94;;;8.23;100.00
71778;BME280;59609;52.430;4.668;2023-01-08T06:53:14;100041.00;;;8.25;100.00
71778;BME280;59609;52.430;4.668;2023-01-08T06:55:40;100031.72;;;8.18;100.00
71778;BME280;59609;52.430;4.668;2023-01-08T06:58:05;100031.72;;;8.18;100.00
71778;BME280;59609;52.430;4.668;2023-01-08T07:00:30;100033.97;;;8.22;99.79
71778;BME280;59609;52.430;4.668;2023-01-08T07:02:56;100031.72;;;8.18;100.00
71778;BME280;59609;52.430;4.668;2023-01-08T07:05:22;100034.31;;;8.11;100.00
71778;BME280;59609;52.430;4.668;2023-01-08T07:07:48;100032.78;;;8.17;99.89
71778;BME280;59609;52.430;4.668;2023-01-08T07:10:14;100038.94;;;8.19;100.00
71778;BME280;59609;52.430;4.668;2023-01-08T07:12:39;100035.53;;;8.17;100.00
71778;BME280;59609;52.430;4.668;2023-01-08T07:15:05;100031.22;;;8.14;100.00
71778;BME280;59609;52.430;4.668;2023-01-08T07:17:34;100021.09;;;7.99;100.00
71778;BME280;59609;52.430;4.668;2023-01-08T07:19:59;100034.47;;;8.02;100.00
71778;BME280;59609;52.430;4.668;2023-01-08T07:22:24;100030.34;;;7.98;100.00
71778;BME280;59609;52.430;4.668;2023-01-08T07:24:51;100030.88;;;8.01;100.00
71778;BME280;59609;52.430;4.668;2023-01-08T07:27:16;100026.94;;;7.96;100.00
71778;BME280;59609;52.430;4.668;2023-01-08T07:29:41;100031.19;;;7.82;100.00
71778;BME280;59609;52.430;4.668;2023-01-08T07:32:07;100025.53;;;7.75;100.00
71778;BME280;59609;52.430;4.668;2023-01-08T07:34:32;100021.25;;;7.73;100.00
71778;BME280;59609;52.430;4.668;2023-01-08T07:36:59;100008.41;;;7.73;100.00
71778;BME280;59609;52.430;4.668;2023-01-08T07:39:24;100014.22;;;7.70;100.00
71778;BME280;59609;52.430;4.668;2023-01-08T07:41:50;100007.38;;;7.66;100.00
71778;BME280;59609;52.430;4.668;2023-01-08T07:44:15;100013.19;;;7.63;100.00
71778;BME280;59609;52.430;4.668;2023-01-08T07:46:40;100001.69;;;7.60;100.00
71778;BME280;59609;52.430;4.668;2023-01-08T07:49:06;100003.59;;;7.59;100.00
71778;BME280;59609;52.430;4.668;2023-01-08T07:51:31;99992.97;;;7.56;100.00
71778;BME280;59609;52.430;4.668;2023-01-08T07:53:57;99994.31;;;7.52;100.00
71778;BME280;59609;52.430;4.668;2023-01-08T07:56:22;100004.44;;;7.60;100.00
71778;BME280;59609;52.430;4.668;2023-01-08T07:58:48;100008.03;;;7.52;100.00
71778;BME280;59609;52.430;4.668;2023-01-08T08:01:13;99996.53;;;7.49;100.00
71778;BME280;59609;52.430;4.668;2023-01-08T08:03:39;100002.19;;;7.55;100.00
71778;BME280;59609;52.430;4.668;2023-01-08T08:06:05;100003.56;;;7.51;100.00
71778;BME280;59609;52.430;4.668;2023-01-08T08:08:30;99997.09;;;7.60;100.00
71778;BME280;59609;52.430;4.668;2023-01-08T08:10:55;100002.19;;;7.55;100.00
71778;BME280;59609;52.430;4.668;2023-01-08T08:13:23;99989.31;;;7.48;100.00
71778;BME280;59609;52.430;4.668;2023-01-08T08:15:49;99989.00;;;7.51;100.00
71778;BME280;59609;52.430;4.668;2023-01-08T08:18:14;99993.63;;;7.50;100.00
71778;BME280;59609;52.430;4.668;2023-01-08T08:20:39;100000.13;;;7.49;100.00
71778;BME280;59609;52.430;4.668;2023-01-08T08:23:07;99995.19;;;7.53;100.00
71778;BME280;59609;52.430;4.668;2023-01-08T08:25:33;99991.56;;;7.52;100.00
71778;BME280;59609;52.430;4.668;2023-01-08T08:28:00;99982.69;;;7.50;100.00
71778;BME280;59609;52.430;4.668;2023-01-08T08:30:27;99985.06;;;7.53;100.00
71778;BME280;59609;52.430;4.668;2023-01-08T08:32:53;99993.47;;;7.60;100.00
71778;BME280;59609;52.430;4.668;2023-01-08T08:35:19;99983.53;;;7.59;100.00
71778;BME280;59609;52.430;4.668;2023-01-08T08:37:44;99988.84;;;7.60;100.00
71778;BME280;59609;52.430;4.668;2023-01-08T08:40:10;99991.59;;;7.60;100.00
71778;BME280;59609;52.430;4.668;2023-01-08T08:42:36;99987.47;;;7.64;100.00
71778;BME280;59609;52.430;4.668;2023-01-08T08:45:01;99984.22;;;7.61;100.00
71778;BME280;59609;52.430;4.668;2023-01-08T08:47:26;99981.50;;;7.69;100.00
71778;BME280;59609;52.430;4.668;2023-01-08T08:49:52;99984.41;;;7.59;100.00
71778;BME280;59609;52.430;4.668;2023-01-08T08:52:17;99983.22;;;7.70;100.00
71778;BME280;59609;52.430;4.668;2023-01-08T08:54:44;99979.44;;;7.71;100.00
71778;BME280;59609;52.430;4.668;2023-01-08T08:57:09;99984.06;;;7.78;100.00
71778;BME280;59609;52.430;4.668;2023-01-08T08:59:35;99981.00;;;7.73;100.00
71778;BME280;59609;52.430;4.668;2023-01-08T09:02:00;99966.22;;;7.74;100.00
71778;BME280;59609;52.430;4.668;2023-01-08T09:04:29;99971.72;;;7.91;100.00
71778;BME280;59609;52.430;4.668;2023-01-08T09:06:55;99968.66;;;7.86;100.00
71778;BME280;59609;52.430;4.668;2023-01-08T09:09:20;99958.88;;;7.91;100.00
71778;BME280;59609;52.430;4.668;2023-01-08T09:11:45;99957.69;;;7.86;100.00
71778;BME280;59609;52.430;4.668;2023-01-08T09:14:11;99954.94;;;7.86;100.00
71778;BME280;59609;52.430;4.668;2023-01-08T09:16:36;99967.28;;;7.90;100.00
71778;BME280;59609;52.430;4.668;2023-01-08T09:19:02;99950.81;;;7.98;100.00
71778;BME280;59609;52.430;4.668;2023-01-08T09:21:28;99970.19;;;8.04;100.00
71778;BME280;59609;52.430;4.668;2023-01-08T09:23:53;99946.69;;;8.02;100.00
71778;BME280;59609;52.430;4.668;2023-01-08T09:26:18;99948.75;;;8.08;100.00
71778;BME280;59609;52.430;4.668;2023-01-08T09:28:44;99944.63;;;8.12;100.00
71778;BME280;59609;52.430;4.668;2023-01-08T09:31:09;99953.72;;;8.12;100.00
71778;BME280;59609;52.430;4.668;2023-01-08T09:33:34;99952.72;;;8.13;100.00
71778;BME280;59609;52.430;4.668;2023-01-08T09:36:00;99955.25;;;8.31;100.00
71778;BME280;59609;52.430;4.668;2023-01-08T09:38:25;99951.16;;;8.27;100.00
71778;BME280;59609;52.430;4.668;2023-01-08T09:40:57;99949.94;;;8.38;100.00
71778;BME280;59609;52.430;4.668;2023-01-08T09:43:25;99952.16;;;8.34;100.00
71778;BME280;59609;52.430;4.668;2023-01-08T09:45:56;99949.41;;;8.50;100.00
71778;BME280;59609;52.430;4.668;2023-01-08T09:48:25;99942.41;;;8.40;100.00
71778;BME280;59609;52.430;4.668;2023-01-08T09:50:52;99939.25;;;8.59;99.85
71778;BME280;59609;52.430;4.668;2023-01-08T09:53:18;99940.78;;;8.61;99.41
71778;BME280;59609;52.430;4.668;2023-01-08T09:55:45;99944.88;;;8.65;100.00
71778;BME280;59609;52.430;4.668;2023-01-08T10:00:58;99943.47;;;8.77;99.00
71778;BME280;59609;52.430;4.668;2023-01-08T10:03:30;99942.44;;;8.78;98.90
71778;BME280;59609;52.430;4.668;2023-01-08T10:06:06;99948.78;;;8.79;98.09
71778;BME280;59609;52.430;4.668;2023-01-08T10:08:31;99938.22;;;8.99;98.20
71778;BME280;59609;52.430;4.668;2023-01-08T10:10:57;99938.09;;;8.92;97.62
71778;BME280;59609;52.430;4.668;2023-01-08T10:13:22;99930.09;;;9.13;96.74
71778;BME280;59609;52.430;4.668;2023-01-08T10:15:48;99941.59;;;9.09;97.09
71778;BME280;59609;52.430;4.668;2023-01-08T10:18:15;99935.34;;;9.54;95.32
71778;BME280;59609;52.430;4.668;2023-01-08T10:20:42;99920.84;;;9.60;94.66
71778;BME280;59609;52.430;4.668;2023-01-08T10:23:13;99926.81;;;9.86;93.51
71778;BME280;59609;52.430;4.668;2023-01-08T10:25:53;99923.63;;;9.97;91.67
71778;BME280;59609;52.430;4.668;2023-01-08T10:28:27;99919.56;;;10.08;91.68
71778;BME280;59609;52.430;4.668;2023-01-08T10:30:58;99917.88;;;9.84;92.67
71778;BME280;59609;52.430;4.668;2023-01-08T10:33:31;99915.66;;;10.02;92.34
71778;BME280;59609;52.430;4.668;2023-01-08T10:36:04;99919.72;;;9.92;93.54
71778;BME280;59609;52.430;4.668;2023-01-08T10:38:33;99918.13;;;10.20;92.25
71778;BME280;59609;52.430;4.668;2023-01-08T10:41:00;99918.03;;;10.05;92.33
71778;BME280;59609;52.430;4.668;2023-01-08T10:43:31;99910.94;;;10.11;92.63
71778;BME280;59609;52.430;4.668;2023-01-08T10:46:06;99911.22;;;10.53;90.63
71778;BME280;59609;52.430;4.668;2023-01-08T10:48:43;99919.09;;;10.27;90.87
71778;BME280;59609;52.430;4.668;2023-01-08T10:51:17;99910.81;;;10.71;90.40
71778;BME280;59609;52.430;4.668;2023-01-08T10:53:43;99893.06;;;10.29;90.04
71778;BME280;59609;52.430;4.668;2023-01-08T10:56:21;99894.03;;;10.66;89.38
71778;BME280;59609;52.430;4.668;2023-01-08T10:58:47;99895.09;;;10.13;91.39
71778;BME280;59609;52.430;4.668;2023-01-08T11:01:26;99906.81;;;9.92;93.79
71778;BME280;59609;52.430;4.668;2023-01-08T11:03:58;99906.72;;;9.86;92.98
71778;BME280;59609;52.430;4.668;2023-01-08T11:06:26;99903.66;;;9.80;94.01
71778;BME280;59609;52.430;4.668;2023-01-08T11:08:55;99902.13;;;9.78;93.98
71778;BME280;59609;52.430;4.668;2023-01-08T11:11:21;99890.91;;;10.02;93.74
71778;BME280;59609;52.430;4.668;2023-01-08T11:13:59;99880.97;;;9.78;94.38
71778;BME280;59609;52.430;4.668;2023-01-08T11:16:38;99879.66;;;10.41;93.02
71778;BME280;59609;52.430;4.668;2023-01-08T11:19:15;99879.28;;;10.15;91.45
71778;BME280;59609;52.430;4.668;2023-01-08T11:21:40;99878.53;;;10.65;90.61
71778;BME280;59609;52.430;4.668;2023-01-08T11:24:19;99878.53;;;10.79;90.45
71778;BME280;59609;52.430;4.668;2023-01-08T11:26:55;99863.25;;;10.62;89.99
71778;BME280;59609;52.430;4.668;2023-01-08T11:31:52;99860.78;;;10.38;90.21
71778;BME280;59609;52.430;4.668;2023-01-08T11:34:20;99849.47;;;10.62;89.16
71778;BME280;59609;52.430;4.668;2023-01-08T11:36:53;99857.28;;;10.95;87.68
71778;BME280;59609;52.430;4.668;2023-01-08T11:39:21;99839.00;;;11.08;86.95
71778;BME280;59609;52.430;4.668;2023-01-08T11:42:19;99856.69;;;10.63;88.14
71778;BME280;59609;52.430;4.668;2023-01-08T11:50:45;99841.03;;;10.64;86.23
71778;BME280;59609;52.430;4.668;2023-01-08T11:53:30;99839.41;;;10.69;87.53
71778;BME280;59609;52.430;4.668;2023-01-08T11:59:08;99826.22;;;11.01;86.29
71778;BME280;59609;52.430;4.668;2023-01-08T12:02:09;99829.53;;;10.60;87.26
71778;BME280;59609;52.430;4.668;2023-01-08T12:04:56;99820.84;;;11.14;85.03
71778;BME280;59609;52.430;4.668;2023-01-08T12:07:34;99818.25;;;10.91;85.70
71778;BME280;59609;52.430;4.668;2023-01-08T12:10:44;99817.84;;;10.58;87.40
71778;BME280;59609;52.430;4.668;2023-01-08T12:13:43;99810.59;;;10.72;86.87
71778;BME280;59609;52.430;4.668;2023-01-08T12:16:23;99812.66;;;10.84;86.68
71778;BME280;59609;52.430;4.668;2023-01-08T12:22:10;99814.44;;;10.56;86.31
71778;BME280;59609;52.430;4.668;2023-01-08T12:33:30;99789.53;;;11.00;84.28
71778;BME280;59609;52.430;4.668;2023-01-08T12:36:01;99795.09;;;10.85;84.68
71778;BME280;59609;52.430;4.668;2023-01-08T12:38:34;99794.38;;;10.77;86.07
71778;BME280;59609;52.430;4.668;2023-01-08T12:41:04;99792.13;;;10.51;85.35
71778;BME280;59609;52.430;4.668;2023-01-08T12:43:56;99780.69;;;10.69;84.67
71778;BME280;59609;52.430;4.668;2023-01-08T12:46:34;99781.00;;;10.59;85.44
71778;BME280;59609;52.430;4.668;2023-01-08T12:49:03;99765.81;;;10.84;83.70
71778;BME280;59609;52.430;4.668;2023-01-08T12:54:57;99785.09;;;10.84;82.31
71778;BME280;59609;52.430;4.668;2023-01-08T12:57:29;99774.63;;;10.95;82.42
71778;BME280;59609;52.430;4.668;2023-01-08T13:00:16;99779.41;;;10.86;81.93
71778;BME280;59609;52.430;4.668;2023-01-08T13:05:13;99770.88;;;11.02;81.08
71778;BME280;59609;52.430;4.668;2023-01-08T13:07:56;99767.00;;;11.18;81.33
71778;BME280;59609;52.430;4.668;2023-01-08T13:10:49;99761.88;;;11.36;80.42
71778;BME280;59609;52.430;4.668;2023-01-08T13:13:36;99765.25;;;10.53;83.17
71778;BME280;59609;52.430;4.668;2023-01-08T13:16:24;99755.31;;;10.73;83.57
71778;BME280;59609;52.430;4.668;2023-01-08T13:18:55;99758.44;;;11.06;82.22
71778;BME280;59609;52.430;4.668;2023-01-08T13:21:56;99748.50;;;11.12;81.74
71778;BME280;59609;52.430;4.668;2023-01-08T13:26:55;99732.72;;;12.58;75.25
71778;BME280;59609;52.430;4.668;2023-01-08T13:29:38;99738.13;;;11.63;77.25
71778;BME280;59609;52.430;4.668;2023-01-08T13:34:47;99737.88;;;10.66;82.61
71778;BME280;59609;52.430;4.668;2023-01-08T13:37:22;99732.28;;;10.60;82.87
71778;BME280;59609;52.430;4.668;2023-01-08T13:39:48;99730.25;;;10.68;83.65
71778;BME280;59609;52.430;4.668;2023-01-08T13:42:20;99730.16;;;10.41;84.05
71778;BME280;59609;52.430;4.668;2023-01-08T13:44:56;99720.16;;;10.75;82.33
71778;BME280;59609;52.430;4.668;2023-01-08T13:47:33;99713.56;;;11.40;79.94
71778;BME280;59609;52.430;4.668;2023-01-08T13:50:02;99719.38;;;11.52;79.36
71778;BME280;59609;52.430;4.668;2023-01-08T13:55:28;99703.25;;;11.00;81.02
71778;BME280;59609;52.430;4.668;2023-01-08T13:57:57;99700.38;;;11.14;81.61